sensor_id;sensor_type;location;lat;lon;timestamp;temperature;humidity
41838;DHT22;27511;52.042;5.178;2023-05-29T00:00:44;17.10;99.90
41838;DHT22;27511;52.042;5.178;2023-05-29T00:03:09;17.10;99.90
41838;DHT22;27511;52.042;5.178;2023-05-29T00:05:35;16.90;99.90
41838;DHT22;27511;52.042;5.178;2023-05-29T00:08:01;16.80;99.90
41838;DHT22;27511;52.042;5.178;2023-05-29T00:10:26;16.80;99.90
41838;DHT22;27511;52.042;5.178;2023-05-29T00:12:52;16.90;99.90
41838;DHT22;27511;52.042;5.178;2023-05-29T00:15:17;16.80;99.90
41838;DHT22;27511;52.042;5.178;2023-05-29T00:17:43;16.80;99.90
41838;DHT22;27511;52.042;5.178;2023-05-29T00:20:08;16.80;99.90
41838;DHT22;27511;52.042;5.178;2023-05-29T00:22:37;16.80;99.90
41838;DHT22;27511;52.042;5.178;2023-05-29T00:25:06;16.70;99.90
41838;DHT22;27511;52.042;5.178;2023-05-29T00:27:32;16.70;99.90
41838;DHT22;27511;52.042;5.178;2023-05-29T00:29:59;16.60;99.90
41838;DHT22;27511;52.042;5.178;2023-05-29T00:32:24;16.50;99.90
41838;DHT22;27511;52.042;5.178;2023-05-29T00:34:50;16.50;99.90
41838;DHT22;27511;52.042;5.178;2023-05-29T00:37:16;16.50;99.90
41838;DHT22;27511;52.042;5.178;2023-05-29T00:39:42;16.50;99.90
41838;DHT22;27511;52.042;5.178;2023-05-29T00:42:07;16.50;99.90
41838;DHT22;27511;52.042;5.178;2023-05-29T00:44:33;16.50;99.90
41838;DHT22;27511;52.042;5.178;2023-05-29T00:46:58;16.50;99.90
41838;DHT22;27511;52.042;5.178;2023-05-29T00:49:24;16.50;99.90
41838;DHT22;27511;52.042;5.178;2023-05-29T00:51:51;16.40;99.90
41838;DHT22;27511;52.042;5.178;2023-05-29T00:54:17;16.50;99.90
41838;DHT22;27511;52.042;5.178;2023-05-29T00:56:46;16.60;99.90
41838;DHT22;27511;52.042;5.178;2023-05-29T00:59:11;16.50;99.90
41838;DHT22;27511;52.042;5.178;2023-05-29T01:01:37;16.50;99.90
41838;DHT22;27511;52.042;5.178;2023-05-29T01:04:03;16.50;99.90
41838;DHT22;27511;52.042;5.178;2023-05-29T01:06:35;16.40;99.90
41838;DHT22;27511;52.042;5.178;2023-05-29T01:09:00;16.40;99.90
41838;DHT22;27511;52.042;5.178;2023-05-29T01:13:52;16.40;99.90
41838;DHT22;27511;52.042;5.178;2023-05-29T01:16:26;16.40;99.90
41838;DHT22;27511;52.042;5.178;2023-05-29T01:18:57;16.30;99.90
41838;DHT22;27511;52.042;5.178;2023-05-29T01:29:37;16.10;99.90
41838;DHT22;27511;52.042;5.178;2023-05-29T01:32:04;16.20;99.90
41838;DHT22;27511;52.042;5.178;2023-05-29T01:34:30;16.00;99.90
41838;DHT22;27511;52.042;5.178;2023-05-29T01:36:55;16.10;99.90
41838;DHT22;27511;52.042;5.178;2023-05-29T01:39:21;16.10;99.90
41838;DHT22;27511;52.042;5.178;2023-05-29T01:41:47;16.20;99.90
41838;DHT22;27511;52.042;5.178;2023-05-29T01:44:13;16.20;99.90
41838;DHT22;27511;52.042;5.178;2023-05-29T01:46:39;16.10;99.90
41838;DHT22;27511;52.042;5.178;2023-05-29T01:49:05;16.00;99.90
41838;DHT22;27511;52.042;5.178;2023-05-29T01:51:31;15.90;99.90
41838;DHT22;27511;52.042;5.178;2023-05-29T01:53:57;16.00;99.90
41838;DHT22;27511;52.042;5.178;2023-05-29T01:56:22;16.00;99.90
41838;DHT22;27511;52.042;5.178;2023-05-29T01:58:48;15.90;99.90
41838;DHT22;27511;52.042;5.178;2023-05-29T02:01:15;16.00;99.90
41838;DHT22;27511;52.042;5.178;2023-05-29T02:03:41;15.90;99.90
41838;DHT22;27511;52.042;5.178;2023-05-29T02:06:06;15.80;99.90
41838;DHT22;27511;52.042;5.178;2023-05-29T02:08:32;16.00;99.90
41838;DHT22;27511;52.042;5.178;2023-05-29T02:10:57;15.90;99.90
41838;DHT22;27511;52.042;5.178;2023-05-29T02:13:23;15.90;99.90
41838;DHT22;27511;52.042;5.178;2023-05-29T02:15:48;15.90;99.90
41838;DHT22;27511;52.042;5.178;2023-05-29T02:18:14;15.90;99.90
41838;DHT22;27511;52.042;5.178;2023-05-29T02:20:40;16.00;99.90
41838;DHT22;27511;52.042;5.178;2023-05-29T02:23:07;15.90;99.90
41838;DHT22;27511;52.042;5.178;2023-05-29T02:25:33;15.80;99.90
41838;DHT22;27511;52.042;5.178;2023-05-29T02:27:59;15.70;99.90
41838;DHT22;27511;52.042;5.178;2023-05-29T02:30:24;15.70;99.90
41838;DHT22;27511;52.042;5.178;2023-05-29T02:32:50;15.70;99.90
41838;DHT22;27511;52.042;5.178;2023-05-29T02:35:16;15.60;99.90
41838;DHT22;27511;52.042;5.178;2023-05-29T02:37:43;15.60;99.90
41838;DHT22;27511;52.042;5.178;2023-05-29T02:40:09;15.60;99.90
41838;DHT22;27511;52.042;5.178;2023-05-29T02:42:35;15.60;99.90
41838;DHT22;27511;52.042;5.178;2023-05-29T02:45:01;15.60;99.90
41838;DHT22;27511;52.042;5.178;2023-05-29T02:47:27;15.40;99.90
41838;DHT22;27511;52.042;5.178;2023-05-29T02:49:52;15.50;99.90
41838;DHT22;27511;52.042;5.178;2023-05-29T02:52:18;15.60;99.90
41838;DHT22;27511;52.042;5.178;2023-05-29T02:54:43;15.50;99.90
41838;DHT22;27511;52.042;5.178;2023-05-29T02:57:08;15.50;99.90
41838;DHT22;27511;52.042;5.178;2023-05-29T02:59:34;15.50;99.90
41838;DHT22;27511;52.042;5.178;2023-05-29T03:02:00;15.30;99.90
41838;DHT22;27511;52.042;5.178;2023-05-29T03:04:26;15.20;99.90
41838;DHT22;27511;52.042;5.178;2023-05-29T03:06:52;15.40;99.90
41838;DHT22;27511;52.042;5.178;2023-05-29T03:09:18;15.40;99.90
41838;DHT22;27511;52.042;5.178;2023-05-29T03:11:44;15.30;99.90
41838;DHT22;27511;52.042;5.178;2023-05-29T03:14:10;15.40;99.90
41838;DHT22;27511;52.042;5.178;2023-05-29T03:16:35;15.50;99.90
41838;DHT22;27511;52.042;5.178;2023-05-29T03:19:03;15.50;99.90
41838;DHT22;27511;52.042;5.178;2023-05-29T03:21:28;15.40;99.90
41838;DHT22;27511;52.042;5.178;2023-05-29T03:23:54;15.30;99.90
41838;DHT22;27511;52.042;5.178;2023-05-29T03:26:19;15.20;99.90
41838;DHT22;27511;52.042;5.178;2023-05-29T03:28:45;15.20;99.90
41838;DHT22;27511;52.042;5.178;2023-05-29T03:31:10;15.20;99.90
41838;DHT22;27511;52.042;5.178;2023-05-29T03:33:36;15.20;99.90
41838;DHT22;27511;52.042;5.178;2023-05-29T03:36:01;15.20;99.90
41838;DHT22;27511;52.042;5.178;2023-05-29T03:38:27;15.20;99.90
41838;DHT22;27511;52.042;5.178;2023-05-29T03:40:53;15.20;99.90
41838;DHT22;27511;52.042;5.178;2023-05-29T03:43:19;15.20;99.90
41838;DHT22;27511;52.042;5.178;2023-05-29T03:45:44;15.20;99.90
41838;DHT22;27511;52.042;5.178;2023-05-29T03:48:10;15.00;99.90
41838;DHT22;27511;52.042;5.178;2023-05-29T03:50:35;15.00;99.90
41838;DHT22;27511;52.042;5.178;2023-05-29T03:53:01;15.00;99.90
41838;DHT22;27511;52.042;5.178;2023-05-29T03:55:26;15.10;99.90
41838;DHT22;27511;52.042;5.178;2023-05-29T03:57:53;15.00;99.90
41838;DHT22;27511;52.042;5.178;2023-05-29T04:00:18;14.90;99.90
41838;DHT22;27511;52.042;5.178;2023-05-29T04:02:44;14.90;99.90
41838;DHT22;27511;52.042;5.178;2023-05-29T04:05:10;14.80;99.90
41838;DHT22;27511;52.042;5.178;2023-05-29T04:07:35;15.00;99.90
41838;DHT22;27511;52.042;5.178;2023-05-29T04:10:04;15.00;99.90
41838;DHT22;27511;52.042;5.178;2023-05-29T04:12:30;14.90;99.90
41838;DHT22;27511;52.042;5.178;2023-05-29T04:14:56;14.80;99.90
41838;DHT22;27511;52.042;5.178;2023-05-29T04:17:22;14.90;99.90
41838;DHT22;27511;52.042;5.178;2023-05-29T04:19:47;14.80;99.90
41838;DHT22;27511;52.042;5.178;2023-05-29T04:22:13;14.80;99.90
41838;DHT22;27511;52.042;5.178;2023-05-29T04:24:39;14.80;99.90
41838;DHT22;27511;52.042;5.178;2023-05-29T04:27:04;15.00;99.90
41838;DHT22;27511;52.042;5.178;2023-05-29T04:29:30;14.90;99.90
41838;DHT22;27511;52.042;5.178;2023-05-29T04:31:55;14.90;99.90
41838;DHT22;27511;52.042;5.178;2023-05-29T04:34:21;14.90;99.90
41838;DHT22;27511;52.042;5.178;2023-05-29T04:36:47;14.80;99.90
41838;DHT22;27511;52.042;5.178;2023-05-29T04:39:13;14.80;99.90
41838;DHT22;27511;52.042;5.178;2023-05-29T04:41:42;14.90;99.90
41838;DHT22;27511;52.042;5.178;2023-05-29T04:44:07;15.00;99.90
41838;DHT22;27511;52.042;5.178;2023-05-29T04:46:35;14.80;99.90
41838;DHT22;27511;52.042;5.178;2023-05-29T04:49:00;14.90;99.90
41838;DHT22;27511;52.042;5.178;2023-05-29T04:51:28;15.00;99.90
41838;DHT22;27511;52.042;5.178;2023-05-29T04:53:55;15.00;99.90
41838;DHT22;27511;52.042;5.178;2023-05-29T04:56:20;15.10;99.90
41838;DHT22;27511;52.042;5.178;2023-05-29T04:58:47;15.10;99.90
41838;DHT22;27511;52.042;5.178;2023-05-29T05:01:13;15.10;99.90
41838;DHT22;27511;52.042;5.178;2023-05-29T05:03:42;15.20;99.90
41838;DHT22;27511;52.042;5.178;2023-05-29T05:06:08;15.20;99.90
41838;DHT22;27511;52.042;5.178;2023-05-29T05:08:33;15.10;99.90
41838;DHT22;27511;52.042;5.178;2023-05-29T05:11:00;15.10;99.90
41838;DHT22;27511;52.042;5.178;2023-05-29T05:13:25;15.00;99.90
41838;DHT22;27511;52.042;5.178;2023-05-29T05:15:51;15.10;99.90
41838;DHT22;27511;52.042;5.178;2023-05-29T05:18:16;15.20;99.90
41838;DHT22;27511;52.042;5.178;2023-05-29T05:20:42;15.20;99.90
41838;DHT22;27511;52.042;5.178;2023-05-29T05:23:09;15.20;99.90
41838;DHT22;27511;52.042;5.178;2023-05-29T05:25:34;15.10;99.90
41838;DHT22;27511;52.042;5.178;2023-05-29T05:28:01;15.00;99.90
41838;DHT22;27511;52.042;5.178;2023-05-29T05:30:26;15.20;99.90
41838;DHT22;27511;52.042;5.178;2023-05-29T05:32:52;15.20;99.90
41838;DHT22;27511;52.042;5.178;2023-05-29T05:35:17;15.10;99.90
41838;DHT22;27511;52.042;5.178;2023-05-29T05:37:43;15.00;99.90
41838;DHT22;27511;52.042;5.178;2023-05-29T05:40:08;15.10;99.90
41838;DHT22;27511;52.042;5.178;2023-05-29T05:42:34;15.20;99.90
41838;DHT22;27511;52.042;5.178;2023-05-29T05:44:59;15.20;99.90
41838;DHT22;27511;52.042;5.178;2023-05-29T05:47:25;15.30;99.90
41838;DHT22;27511;52.042;5.178;2023-05-29T05:49:51;15.30;99.90
41838;DHT22;27511;52.042;5.178;2023-05-29T05:52:17;15.30;99.90
41838;DHT22;27511;52.042;5.178;2023-05-29T05:54:42;15.50;99.90
41838;DHT22;27511;52.042;5.178;2023-05-29T05:57:08;15.40;99.90
41838;DHT22;27511;52.042;5.178;2023-05-29T05:59:33;15.30;99.90
41838;DHT22;27511;52.042;5.178;2023-05-29T06:01:59;15.30;99.90
41838;DHT22;27511;52.042;5.178;2023-05-29T06:04:24;15.30;99.90
41838;DHT22;27511;52.042;5.178;2023-05-29T06:06:50;15.40;99.90
41838;DHT22;27511;52.042;5.178;2023-05-29T06:09:15;15.30;99.90
41838;DHT22;27511;52.042;5.178;2023-05-29T06:11:41;15.20;99.90
41838;DHT22;27511;52.042;5.178;2023-05-29T06:14:06;15.20;99.90
41838;DHT22;27511;52.042;5.178;2023-05-29T06:16:32;15.30;99.90
41838;DHT22;27511;52.042;5.178;2023-05-29T06:18:57;15.30;99.90
41838;DHT22;27511;52.042;5.178;2023-05-29T06:21:23;15.40;99.90
41838;DHT22;27511;52.042;5.178;2023-05-29T06:23:48;15.30;99.90
41838;DHT22;27511;52.042;5.178;2023-05-29T06:26:14;15.50;99.90
41838;DHT22;27511;52.042;5.178;2023-05-29T06:28:41;15.40;99.90
41838;DHT22;27511;52.042;5.178;2023-05-29T06:31:06;15.40;99.90
41838;DHT22;27511;52.042;5.178;2023-05-29T06:33:32;15.60;99.90
41838;DHT22;27511;52.042;5.178;2023-05-29T06:35:57;15.60;99.90
41838;DHT22;27511;52.042;5.178;2023-05-29T06:38:23;15.60;99.90
41838;DHT22;27511;52.042;5.178;2023-05-29T06:40:48;15.50;99.90
41838;DHT22;27511;52.042;5.178;2023-05-29T06:43:14;15.50;99.90
41838;DHT22;27511;52.042;5.178;2023-05-29T06:45:39;15.50;99.90
41838;DHT22;27511;52.042;5.178;2023-05-29T06:48:06;15.60;99.90
41838;DHT22;27511;52.042;5.178;2023-05-29T06:50:31;15.60;99.90
41838;DHT22;27511;52.042;5.178;2023-05-29T06:52:57;15.70;99.90
41838;DHT22;27511;52.042;5.178;2023-05-29T06:55:22;15.70;99.90
41838;DHT22;27511;52.042;5.178;2023-05-29T06:57:47;15.70;99.90
41838;DHT22;27511;52.042;5.178;2023-05-29T07:00:13;15.60;99.90
41838;DHT22;27511;52.042;5.178;2023-05-29T07:02:39;15.60;99.90
41838;DHT22;27511;52.042;5.178;2023-05-29T07:05:04;15.70;99.90
41838;DHT22;27511;52.042;5.178;2023-05-29T07:07:30;15.80;99.90
41838;DHT22;27511;52.042;5.178;2023-05-29T07:09:56;15.90;99.90
41838;DHT22;27511;52.042;5.178;2023-05-29T07:12:22;16.00;99.90
41838;DHT22;27511;52.042;5.178;2023-05-29T07:14:48;15.90;99.90
41838;DHT22;27511;52.042;5.178;2023-05-29T07:17:14;16.00;99.90
41838;DHT22;27511;52.042;5.178;2023-05-29T07:19:39;15.90;99.90
41838;DHT22;27511;52.042;5.178;2023-05-29T07:22:05;16.00;99.90
41838;DHT22;27511;52.042;5.178;2023-05-29T07:24:31;16.00;99.90
41838;DHT22;27511;52.042;5.178;2023-05-29T07:26:56;16.20;99.90
41838;DHT22;27511;52.042;5.178;2023-05-29T07:29:22;16.10;99.90
41838;DHT22;27511;52.042;5.178;2023-05-29T07:31:49;16.20;99.90
41838;DHT22;27511;52.042;5.178;2023-05-29T07:34:14;16.10;99.90
41838;DHT22;27511;52.042;5.178;2023-05-29T07:37:01;16.00;99.90
41838;DHT22;27511;52.042;5.178;2023-05-29T07:39:25;16.10;99.90
41838;DHT22;27511;52.042;5.178;2023-05-29T07:41:51;16.20;99.90
41838;DHT22;27511;52.042;5.178;2023-05-29T07:44:16;16.20;99.90
41838;DHT22;27511;52.042;5.178;2023-05-29T07:46:42;16.20;99.90
41838;DHT22;27511;52.042;5.178;2023-05-29T07:49:07;16.40;99.90
41838;DHT22;27511;52.042;5.178;2023-05-29T07:51:33;16.40;99.90
41838;DHT22;27511;52.042;5.178;2023-05-29T07:53:58;16.40;99.90
41838;DHT22;27511;52.042;5.178;2023-05-29T07:56:24;16.40;99.90
41838;DHT22;27511;52.042;5.178;2023-05-29T07:58:50;16.50;99.90
41838;DHT22;27511;52.042;5.178;2023-05-29T08:01:18;16.50;99.90
41838;DHT22;27511;52.042;5.178;2023-05-29T08:03:44;16.50;99.90
41838;DHT22;27511;52.042;5.178;2023-05-29T08:06:10;16.60;99.90
41838;DHT22;27511;52.042;5.178;2023-05-29T08:08:35;16.50;99.90
41838;DHT22;27511;52.042;5.178;2023-05-29T08:11:01;16.60;99.90
41838;DHT22;27511;52.042;5.178;2023-05-29T08:13:26;16.60;99.90
41838;DHT22;27511;52.042;5.178;2023-05-29T08:15:52;16.60;99.90
41838;DHT22;27511;52.042;5.178;2023-05-29T08:18:18;16.60;99.90
41838;DHT22;27511;52.042;5.178;2023-05-29T08:20:43;16.70;99.90
41838;DHT22;27511;52.042;5.178;2023-05-29T08:23:10;16.70;99.90
41838;DHT22;27511;52.042;5.178;2023-05-29T08:25:35;16.80;99.90
41838;DHT22;27511;52.042;5.178;2023-05-29T08:28:01;16.90;99.90
41838;DHT22;27511;52.042;5.178;2023-05-29T08:30:26;16.70;99.90
41838;DHT22;27511;52.042;5.178;2023-05-29T08:32:52;16.90;99.90
41838;DHT22;27511;52.042;5.178;2023-05-29T08:35:17;16.80;99.90
41838;DHT22;27511;52.042;5.178;2023-05-29T08:37:43;16.90;99.90
41838;DHT22;27511;52.042;5.178;2023-05-29T08:40:08;16.70;99.90
41838;DHT22;27511;52.042;5.178;2023-05-29T08:43:10;16.80;99.90
41838;DHT22;27511;52.042;5.178;2023-05-29T08:45:26;16.60;99.90
41838;DHT22;27511;52.042;5.178;2023-05-29T08:47:53;16.80;99.90
41838;DHT22;27511;52.042;5.178;2023-05-29T08:50:20;16.90;99.90
41838;DHT22;27511;52.042;5.178;2023-05-29T08:52:46;16.90;99.90
41838;DHT22;27511;52.042;5.178;2023-05-29T08:55:12;17.10;99.90
41838;DHT22;27511;52.042;5.178;2023-05-29T08:57:38;17.20;99.90
41838;DHT22;27511;52.042;5.178;2023-05-29T09:00:04;17.20;99.90
41838;DHT22;27511;52.042;5.178;2023-05-29T09:02:35;17.40;99.90
41838;DHT22;27511;52.042;5.178;2023-05-29T09:05:02;17.50;99.90
41838;DHT22;27511;52.042;5.178;2023-05-29T09:07:27;17.50;99.90
41838;DHT22;27511;52.042;5.178;2023-05-29T09:09:53;17.80;99.90
41838;DHT22;27511;52.042;5.178;2023-05-29T09:12:18;17.80;99.90
41838;DHT22;27511;52.042;5.178;2023-05-29T09:14:44;17.90;99.90
41838;DHT22;27511;52.042;5.178;2023-05-29T09:17:11;18.00;99.90
41838;DHT22;27511;52.042;5.178;2023-05-29T09:19:37;18.10;99.90
41838;DHT22;27511;52.042;5.178;2023-05-29T09:22:05;18.20;99.90
41838;DHT22;27511;52.042;5.178;2023-05-29T09:24:33;18.20;99.90
41838;DHT22;27511;52.042;5.178;2023-05-29T09:26:59;18.20;99.90
41838;DHT22;27511;52.042;5.178;2023-05-29T09:29:26;18.20;99.90
41838;DHT22;27511;52.042;5.178;2023-05-29T09:31:51;18.30;99.90
41838;DHT22;27511;52.042;5.178;2023-05-29T09:34:17;18.40;99.90
41838;DHT22;27511;52.042;5.178;2023-05-29T09:36:42;18.40;99.90
41838;DHT22;27511;52.042;5.178;2023-05-29T09:39:08;18.40;99.90
41838;DHT22;27511;52.042;5.178;2023-05-29T09:41:44;18.50;99.90
41838;DHT22;27511;52.042;5.178;2023-05-29T09:44:13;18.30;99.90
41838;DHT22;27511;52.042;5.178;2023-05-29T09:46:40;18.30;99.90
41838;DHT22;27511;52.042;5.178;2023-05-29T09:49:10;18.10;99.90
41838;DHT22;27511;52.042;5.178;2023-05-29T09:51:36;18.30;99.90
41838;DHT22;27511;52.042;5.178;2023-05-29T09:54:15;18.40;99.90
41838;DHT22;27511;52.042;5.178;2023-05-29T09:56:41;18.40;99.90
41838;DHT22;27511;52.042;5.178;2023-05-29T09:59:10;18.50;99.90
41838;DHT22;27511;52.042;5.178;2023-05-29T10:01:35;18.50;99.90
41838;DHT22;27511;52.042;5.178;2023-05-29T10:04:01;18.60;99.90
41838;DHT22;27511;52.042;5.178;2023-05-29T10:06:27;18.60;99.90
41838;DHT22;27511;52.042;5.178;2023-05-29T10:08:54;18.70;99.90
41838;DHT22;27511;52.042;5.178;2023-05-29T10:11:21;18.70;99.90
41838;DHT22;27511;52.042;5.178;2023-05-29T10:13:50;18.80;99.90
41838;DHT22;27511;52.042;5.178;2023-05-29T10:16:17;18.70;99.90
41838;DHT22;27511;52.042;5.178;2023-05-29T10:18:44;18.80;99.90
41838;DHT22;27511;52.042;5.178;2023-05-29T10:21:14;18.90;99.90
41838;DHT22;27511;52.042;5.178;2023-05-29T10:23:41;18.90;99.90
41838;DHT22;27511;52.042;5.178;2023-05-29T10:28:49;19.10;99.90
41838;DHT22;27511;52.042;5.178;2023-05-29T10:31:18;19.10;99.90
41838;DHT22;27511;52.042;5.178;2023-05-29T10:36:14;19.20;99.90
41838;DHT22;27511;52.042;5.178;2023-05-29T10:38:41;19.30;99.90
41838;DHT22;27511;52.042;5.178;2023-05-29T10:43:56;19.60;99.90
41838;DHT22;27511;52.042;5.178;2023-05-29T10:46:28;19.70;99.90
41838;DHT22;27511;52.042;5.178;2023-05-29T10:49:17;19.70;99.90
41838;DHT22;27511;52.042;5.178;2023-05-29T10:51:42;19.60;99.90
41838;DHT22;27511;52.042;5.178;2023-05-29T10:54:08;19.60;99.90
41838;DHT22;27511;52.042;5.178;2023-05-29T10:56:34;19.70;99.90
41838;DHT22;27511;52.042;5.178;2023-05-29T10:58:59;19.70;99.90
41838;DHT22;27511;52.042;5.178;2023-05-29T11:01:27;19.90;99.90
41838;DHT22;27511;52.042;5.178;2023-05-29T11:03:53;19.90;99.90
41838;DHT22;27511;52.042;5.178;2023-05-29T11:06:20;20.00;99.90
41838;DHT22;27511;52.042;5.178;2023-05-29T11:11:12;20.00;99.90
41838;DHT22;27511;52.042;5.178;2023-05-29T11:13:38;20.10;99.90
41838;DHT22;27511;52.042;5.178;2023-05-29T11:16:09;20.20;99.90
41838;DHT22;27511;52.042;5.178;2023-05-29T11:18:39;20.10;99.90
41838;DHT22;27511;52.042;5.178;2023-05-29T11:21:05;20.30;99.90
41838;DHT22;27511;52.042;5.178;2023-05-29T11:23:35;20.40;99.90
41838;DHT22;27511;52.042;5.178;2023-05-29T11:26:02;20.30;99.90
41838;DHT22;27511;52.042;5.178;2023-05-29T11:28:28;20.40;99.90
41838;DHT22;27511;52.042;5.178;2023-05-29T11:30:53;20.40;99.90
41838;DHT22;27511;52.042;5.178;2023-05-29T11:33:24;20.40;99.90
41838;DHT22;27511;52.042;5.178;2023-05-29T11:36:00;20.40;99.90
41838;DHT22;27511;52.042;5.178;2023-05-29T11:38:26;20.50;99.90
41838;DHT22;27511;52.042;5.178;2023-05-29T11:40:55;20.60;99.90
41838;DHT22;27511;52.042;5.178;2023-05-29T11:43:21;20.60;99.90
41838;DHT22;27511;52.042;5.178;2023-05-29T11:45:46;20.60;99.90
41838;DHT22;27511;52.042;5.178;2023-05-29T11:48:12;20.50;99.90
41838;DHT22;27511;52.042;5.178;2023-05-29T11:50:37;20.50;99.90
41838;DHT22;27511;52.042;5.178;2023-05-29T11:53:05;20.50;99.90
41838;DHT22;27511;52.042;5.178;2023-05-29T11:55:30;20.70;99.90
41838;DHT22;27511;52.042;5.178;2023-05-29T11:57:57;20.80;99.90
41838;DHT22;27511;52.042;5.178;2023-05-29T12:00:23;21.00;99.90
41838;DHT22;27511;52.042;5.178;2023-05-29T12:02:49;21.10;99.90
41838;DHT22;27511;52.042;5.178;2023-05-29T12:05:16;21.10;99.90
41838;DHT22;27511;52.042;5.178;2023-05-29T12:10:16;21.00;99.90
41838;DHT22;27511;52.042;5.178;2023-05-29T12:12:42;20.90;99.90
41838;DHT22;27511;52.042;5.178;2023-05-29T12:15:07;20.90;99.90
41838;DHT22;27511;52.042;5.178;2023-05-29T12:17:35;21.00;99.90
41838;DHT22;27511;52.042;5.178;2023-05-29T12:20:01;20.90;99.90
41838;DHT22;27511;52.042;5.178;2023-05-29T12:22:32;20.90;99.90
41838;DHT22;27511;52.042;5.178;2023-05-29T12:25:03;21.00;99.90
41838;DHT22;27511;52.042;5.178;2023-05-29T12:27:28;21.20;99.90
41838;DHT22;27511;52.042;5.178;2023-05-29T12:30:03;21.30;99.90
41838;DHT22;27511;52.042;5.178;2023-05-29T12:32:35;21.40;99.90
41838;DHT22;27511;52.042;5.178;2023-05-29T12:35:01;21.40;99.90
41838;DHT22;27511;52.042;5.178;2023-05-29T12:37:34;21.50;99.90
41838;DHT22;27511;52.042;5.178;2023-05-29T12:40:10;21.50;99.90
41838;DHT22;27511;52.042;5.178;2023-05-29T12:42:37;21.50;99.90
41838;DHT22;27511;52.042;5.178;2023-05-29T12:45:03;21.10;99.90
41838;DHT22;27511;52.042;5.178;2023-05-29T12:47:29;21.40;99.90
41838;DHT22;27511;52.042;5.178;2023-05-29T12:49:54;21.50;99.90
41838;DHT22;27511;52.042;5.178;2023-05-29T12:52:21;21.90;99.90
41838;DHT22;27511;52.042;5.178;2023-05-29T12:54:48;22.00;99.90
41838;DHT22;27511;52.042;5.178;2023-05-29T12:57:14;22.10;99.90
41838;DHT22;27511;52.042;5.178;2023-05-29T12:59:39;22.00;99.90
41838;DHT22;27511;52.042;5.178;2023-05-29T13:02:05;22.10;99.90
41838;DHT22;27511;52.042;5.178;2023-05-29T13:04:33;22.10;99.90
41838;DHT22;27511;52.042;5.178;2023-05-29T13:06:59;22.10;99.90
41838;DHT22;27511;52.042;5.178;2023-05-29T13:09:25;22.20;99.90
41838;DHT22;27511;52.042;5.178;2023-05-29T13:11:50;22.20;99.90
41838;DHT22;27511;52.042;5.178;2023-05-29T13:14:15;22.30;99.90
41838;DHT22;27511;52.042;5.178;2023-05-29T13:16:41;22.30;99.90
41838;DHT22;27511;52.042;5.178;2023-05-29T13:19:06;22.40;99.90
41838;DHT22;27511;52.042;5.178;2023-05-29T13:21:32;22.40;99.90
41838;DHT22;27511;52.042;5.178;2023-05-29T13:23:57;22.50;99.90
41838;DHT22;27511;52.042;5.178;2023-05-29T13:26:23;22.60;99.90
41838;DHT22;27511;52.042;5.178;2023-05-29T13:28:48;22.60;99.90
41838;DHT22;27511;52.042;5.178;2023-05-29T13:31:14;22.60;99.90
41838;DHT22;27511;52.042;5.178;2023-05-29T13:33:39;22.50;99.90
41838;DHT22;27511;52.042;5.178;2023-05-29T13:36:05;22.50;99.90
41838;DHT22;27511;52.042;5.178;2023-05-29T13:38:30;22.50;99.90
41838;DHT22;27511;52.042;5.178;2023-05-29T13:40:56;22.20;99.90
41838;DHT22;27511;52.042;5.178;2023-05-29T13:43:21;22.50;99.90
41838;DHT22;27511;52.042;5.178;2023-05-29T13:45:47;22.70;99.90
41838;DHT22;27511;52.042;5.178;2023-05-29T13:48:12;22.80;99.90
41838;DHT22;27511;52.042;5.178;2023-05-29T13:50:38;22.80;99.90
41838;DHT22;27511;52.042;5.178;2023-05-29T13:53:03;22.90;99.90
41838;DHT22;27511;52.042;5.178;2023-05-29T13:55:29;23.00;99.90
41838;DHT22;27511;52.042;5.178;2023-05-29T13:57:54;23.10;99.90
41838;DHT22;27511;52.042;5.178;2023-05-29T14:00:20;23.00;99.90
41838;DHT22;27511;52.042;5.178;2023-05-29T14:02:45;22.90;99.90
41838;DHT22;27511;52.042;5.178;2023-05-29T14:05:11;23.10;99.90
41838;DHT22;27511;52.042;5.178;2023-05-29T14:07:36;23.10;99.90
41838;DHT22;27511;52.042;5.178;2023-05-29T14:10:02;23.10;99.90
41838;DHT22;27511;52.042;5.178;2023-05-29T14:12:28;23.00;99.90
41838;DHT22;27511;52.042;5.178;2023-05-29T14:14:53;23.00;99.90
41838;DHT22;27511;52.042;5.178;2023-05-29T14:17:18;23.00;99.90
41838;DHT22;27511;52.042;5.178;2023-05-29T14:19:44;23.10;99.90
41838;DHT22;27511;52.042;5.178;2023-05-29T14:22:13;23.30;99.90
41838;DHT22;27511;52.042;5.178;2023-05-29T14:24:38;23.40;99.90
41838;DHT22;27511;52.042;5.178;2023-05-29T14:27:04;23.40;99.90
41838;DHT22;27511;52.042;5.178;2023-05-29T14:29:30;23.50;99.90
41838;DHT22;27511;52.042;5.178;2023-05-29T14:31:56;23.60;99.90
41838;DHT22;27511;52.042;5.178;2023-05-29T14:34:21;23.80;99.90
41838;DHT22;27511;52.042;5.178;2023-05-29T14:36:47;23.90;99.90
41838;DHT22;27511;52.042;5.178;2023-05-29T14:39:12;24.00;99.90
41838;DHT22;27511;52.042;5.178;2023-05-29T14:41:38;23.90;99.90
41838;DHT22;27511;52.042;5.178;2023-05-29T14:44:03;23.90;99.90
41838;DHT22;27511;52.042;5.178;2023-05-29T14:46:29;24.00;99.90
41838;DHT22;27511;52.042;5.178;2023-05-29T14:49:00;24.10;99.90
41838;DHT22;27511;52.042;5.178;2023-05-29T14:51:26;24.00;99.90
41838;DHT22;27511;52.042;5.178;2023-05-29T14:53:52;24.10;99.90
41838;DHT22;27511;52.042;5.178;2023-05-29T14:56:17;24.10;99.90
41838;DHT22;27511;52.042;5.178;2023-05-29T14:58:44;24.20;99.90
41838;DHT22;27511;52.042;5.178;2023-05-29T15:01:10;24.30;99.90
41838;DHT22;27511;52.042;5.178;2023-05-29T15:03:35;24.40;99.90
41838;DHT22;27511;52.042;5.178;2023-05-29T15:06:04;24.40;99.90
41838;DHT22;27511;52.042;5.178;2023-05-29T15:08:31;24.50;99.90
41838;DHT22;27511;52.042;5.178;2023-05-29T15:11:00;24.50;99.90
41838;DHT22;27511;52.042;5.178;2023-05-29T15:13:25;24.50;99.90
41838;DHT22;27511;52.042;5.178;2023-05-29T15:15:51;24.20;99.90
41838;DHT22;27511;52.042;5.178;2023-05-29T15:18:16;24.00;99.90
41838;DHT22;27511;52.042;5.178;2023-05-29T15:20:42;24.00;99.90
41838;DHT22;27511;52.042;5.178;2023-05-29T15:23:07;24.10;99.90
41838;DHT22;27511;52.042;5.178;2023-05-29T15:25:33;24.40;99.90
41838;DHT22;27511;52.042;5.178;2023-05-29T15:27:58;25.20;99.90
41838;DHT22;27511;52.042;5.178;2023-05-29T15:30:24;26.10;99.90
41838;DHT22;27511;52.042;5.178;2023-05-29T15:32:49;26.70;99.90
41838;DHT22;27511;52.042;5.178;2023-05-29T15:35:15;26.60;99.90
41838;DHT22;27511;52.042;5.178;2023-05-29T15:37:44;26.60;99.90
41838;DHT22;27511;52.042;5.178;2023-05-29T15:40:10;27.40;99.90
41838;DHT22;27511;52.042;5.178;2023-05-29T15:42:36;28.50;99.90
41838;DHT22;27511;52.042;5.178;2023-05-29T15:45:02;29.10;99.90
41838;DHT22;27511;52.042;5.178;2023-05-29T15:47:28;29.80;99.90